Stamford, NY (12167)

6:48 AM EDT on September 15, 2014 (GMT -0400)
Stamford Central School | Change Station
CLOSE
Current Station
Personal Weather Station
Location: Stamford, NY
Elevation: 1804 ft
Nearby Weather Stations

Elev 1804 ft 42.41 °N, 74.62 °W | Updated 8 minutes ago

Mostly Cloudy
Mostly Cloudy
41.8 °F
Feels Like 42 °F
N
0.0
Wind Variable Wind from West

Today
High -- | Low -- °F
--% Chance of Precip.
Yesterday
High -- | Low -- °F
Precip. -- in
6:38 AM 7:08 PM
Waning Gibbous, 56% visible
Pressure 30.27 in
Visibility 10.0 miles
Clouds Few 700 ft
Few 5000 ft
Windchill 42 °F
Dew Point 40 °F
Humidity 92%
Rainfall 0.00 in
Snow Depth Not available.
UV 0.0 out of 12
Pollen 3.30 out of 12
PM2.5 Good
Flu Activity Not available.
SPECI KALB 151035Z 00000KT 10SM FEW007 FEW050 06/04 A3027 RMK AO2 T00560044 $

More Conditions Fewer Conditions

Pressure 30.27 in
Visibility 10.0 miles
Clouds Few 700 ft
Few 5000 ft
Windchill 42 °F
Dew Point 40 °F
Humidity 92%
Rainfall 0.00 in
Snow Depth Not available.
UV 0.0 out of 12
Pollen 3.30 out of 12
PM2.5 Good
Flu Activity Not available.
SPECI KALB 151035Z 00000KT 10SM FEW007 FEW050 06/04 A3027 RMK AO2 T00560044 $

More Conditions Fewer Conditions

10-Day Weather Forecast

Almanac

Astronomy

Sep. 15, 2014 Rise Set
Actual Time 6:38 AM EDT 7:08 PM EDT
Civil Twilight 6:10 AM EDT 7:36 PM EDT
Nautical Twilight 5:36 AM EDT 8:09 PM EDT
Astronomical Twilight 5:02 AM EDT 8:43 PM EDT
Moon 11:42 PM EDT 1:43 PM EDT
Length of Visible Light 13h 26m
Length of Day
12h 29m
Tomorrow will be 2m 50s shorter.
Waning Gibbous, 56% of the Moon is Illuminated
Today
Waning Gibbous
Sep 15
Last Quarter
Sep 24
New
Oct 1
First Quarter
Oct 8
Full

Today's Extremes

State Highs State Lows

Community

WunderPhotos

Upload Photos

1,753,428 photos uploaded!

Nearby

Air Quality

  Air Quality AQ Index Pollutant
Yesterday Good
OZONE
Yesterday Good
PM2.5
Current Good
PM2.5
Monday Good
OZONE
Monday Good
PM2.5

Snow Depth

Station Depth Elevation
No new snow has been reported.

Earthquake Activity

City Distance Mag. Time & Date
No recent earthquake activity has been reported nearby.
Minimum magnitude displayed is 2.5.

Coastal Water Temperatures

Place Temperature
No Stations Reporting

Nearby Weather Stations